page 5780 of 1021023 registered users

eBook PostsUsers

  1. 0forest1crocus registered @ 2013-02-03 22:37:30, last login @ 2013-02-03 22:37:30
  2. 0owner81bead registered @ 2013-02-03 22:39:05, last login @ 2013-02-03 22:39:05
  3. 0jamesnest9 registered @ 2013-02-03 22:39:23, last login @ 2013-02-03 22:39:23
  4. 0effectskirt6 registered @ 2013-02-03 22:39:25, last login @ 2013-02-03 22:39:25
  5. 0sled72quail registered @ 2013-02-03 22:39:27, last login @ 2013-02-03 22:39:27
  6. 0stemease99 registered @ 2013-02-03 22:39:48, last login @ 2013-02-03 22:39:48
  7. 0notify5food registered @ 2013-02-03 22:40:22, last login @ 2013-02-03 22:40:22
  8. 0rewardsquid7 registered @ 2013-02-03 22:42:09, last login @ 2013-02-03 22:42:09
  9. 0gardenlevel48 registered @ 2013-02-03 22:42:23, last login @ 2013-02-03 22:42:23
  10. 0energy7fender registered @ 2013-02-03 22:42:55, last login @ 2013-02-03 22:42:55
  11. 0fingersphere9 registered @ 2013-02-03 22:43:36, last login @ 2013-02-03 22:43:36
  12. 0mpkayla89 registered @ 2013-02-03 22:47:52, last login @ 2013-02-03 22:47:52
  13. 0alfreddvg registered @ 2013-02-03 22:49:19, last login @ 2013-02-03 22:49:19
  14. 0perch1format registered @ 2013-02-03 22:49:47, last login @ 2013-02-03 22:49:47
  15. 0virgojumper54 registered @ 2013-02-03 22:49:51, last login @ 2013-02-03 22:49:51
  16. 0cracknation61 registered @ 2013-02-03 22:50:15, last login @ 2013-02-03 22:50:15
  17. 0saledaniel80 registered @ 2013-02-03 22:50:34, last login @ 2013-02-03 22:50:34
  18. 0pocketplot0 registered @ 2013-02-03 22:51:48, last login @ 2013-02-03 22:51:48
  19. 0tile5temple registered @ 2013-02-03 22:51:48, last login @ 2013-02-03 22:51:48
  20. 0stone71blouse registered @ 2013-02-03 22:53:50, last login @ 2013-02-03 22:53:50
  21. 0frownoven2 registered @ 2013-02-03 22:54:18, last login @ 2013-02-03 22:54:18
  22. 0pantry9boat registered @ 2013-02-03 22:55:59, last login @ 2013-02-03 22:55:59
  23. 0marksxbvz3rz1o registered @ 2013-02-03 22:58:56, last login @ 2013-02-03 22:58:56
  24. 0bubblegeese22 registered @ 2013-02-03 22:59:13, last login @ 2013-02-03 22:59:13
  25. 0lisalinguistics registered @ 2013-02-03 23:00:18, last login @ 2013-02-03 23:00:18
  26. 0swordpart2 registered @ 2013-02-03 23:00:40, last login @ 2013-02-03 23:00:40
  27. 0marknqrvq5n02 registered @ 2013-02-03 23:02:15, last login @ 2013-02-03 23:02:15
  28. 0toriano819 registered @ 2013-02-03 23:03:12, last login @ 2013-02-03 23:03:12
  29. 0shovel2decade registered @ 2013-02-03 23:03:44, last login @ 2013-02-03 23:03:44
  30. 0pastorbubble7 registered @ 2013-02-03 23:06:04, last login @ 2013-02-03 23:06:04
  31. 0quiet8state registered @ 2013-02-03 23:06:22, last login @ 2013-02-03 23:06:22
  32. 0trongrausache77 registered @ 2013-02-03 23:08:05, last login @ 2013-02-03 23:08:05
  33. 0ice8sand registered @ 2013-02-03 23:08:55, last login @ 2013-02-03 23:08:55
  34. 0cropseed6 registered @ 2013-02-03 23:09:31, last login @ 2013-02-03 23:09:31
  35. 0number88editor registered @ 2013-02-03 23:10:34, last login @ 2013-02-03 23:10:34
  36. 0flightpest6 registered @ 2013-02-03 23:10:37, last login @ 2013-02-03 23:26:19
  37. 0musicaurbana7 registered @ 2013-02-03 23:12:12, last login @ 2013-02-03 23:12:12
  38. 0trade0mass registered @ 2013-02-03 23:12:30, last login @ 2013-02-03 23:12:30
  39. 0versetuna01 registered @ 2013-02-03 23:14:49, last login @ 2013-02-03 23:57:33
  40. 0spadestamp01 registered @ 2013-02-03 23:15:02, last login @ 2013-02-03 23:15:02
  41. 0jam25dinner registered @ 2013-02-03 23:16:25, last login @ 2013-02-03 23:41:49
  42. 0gum67july registered @ 2013-02-03 23:16:40, last login @ 2013-02-03 23:16:40
  43. 0fruitturkey78 registered @ 2013-02-03 23:18:53, last login @ 2013-02-03 23:18:53
  44. 0power84needle registered @ 2013-02-03 23:19:01, last login @ 2013-02-03 23:19:01
  45. 0schoolend99 registered @ 2013-02-03 23:19:30, last login @ 2013-02-04 00:00:58
  46. 0rifle78worm registered @ 2013-02-03 23:19:33, last login @ 2013-02-03 23:19:33
  47. 0gallon26board registered @ 2013-02-03 23:20:16, last login @ 2013-02-03 23:20:16
  48. 0planebill8 registered @ 2013-02-03 23:21:17, last login @ 2013-02-03 23:21:17
  49. 0pumpbread1 registered @ 2013-02-03 23:22:44, last login @ 2013-02-03 23:22:44
  50. 0colt0random registered @ 2013-02-03 23:23:56, last login @ 2013-02-03 23:23:56
  51. 0Gramther registered @ 2013-02-03 23:24:36, last login @ 2013-02-03 23:24:36
  52. 0gamebacon2 registered @ 2013-02-03 23:25:01, last login @ 2013-02-03 23:25:01
  53. 0mailgrill7 registered @ 2013-02-03 23:27:46, last login @ 2013-02-03 23:27:46
  54. 0course7rocket registered @ 2013-02-03 23:27:54, last login @ 2013-02-03 23:27:54
  55. 0flat38rifle registered @ 2013-02-03 23:28:20, last login @ 2013-02-03 23:28:20
  56. 0march26silver registered @ 2013-02-03 23:29:19, last login @ 2013-02-03 23:29:19
  57. 0lead7study registered @ 2013-02-03 23:31:29, last login @ 2013-02-03 23:31:29
  58. 0mosque9anime registered @ 2013-02-03 23:31:33, last login @ 2013-02-03 23:31:33
  59. 0jumptaiwan98 registered @ 2013-02-03 23:33:14, last login @ 2013-02-03 23:33:14
  60. 0perch03gemini registered @ 2013-02-03 23:34:46, last login @ 2013-02-03 23:34:46
  61. 0canas202 registered @ 2013-02-03 23:36:14, last login @ 2013-02-03 23:36:14
  62. 0skirt67car registered @ 2013-02-03 23:37:45, last login @ 2013-02-03 23:37:45
  63. 0bell5throat registered @ 2013-02-03 23:40:37, last login @ 2013-02-03 23:40:37
  64. 0wormstitch7 registered @ 2013-02-03 23:41:42, last login @ 2013-02-03 23:41:42
  65. 0lobertrterminastir registered @ 2013-02-03 23:42:04, last login @ 2013-02-03 23:42:04
  66. 0sandradash22 registered @ 2013-02-03 23:43:29, last login @ 2013-02-03 23:43:29
  67. 0bombbirth4 registered @ 2013-02-03 23:43:33, last login @ 2013-02-03 23:43:33
  68. 0ameerraafat registered @ 2013-02-03 23:44:05, last login @ 2013-02-03 23:44:05
  69. 0razaasad5 registered @ 2013-02-03 23:45:43, last login @ 2013-02-03 23:45:43
  70. 0sock9asia registered @ 2013-02-03 23:46:43, last login @ 2013-02-03 23:46:43
  71. 0nephewlathe68 registered @ 2013-02-03 23:47:39, last login @ 2013-02-03 23:47:39
  72. 0nail87growth registered @ 2013-02-03 23:55:08, last login @ 2013-02-03 23:55:08
  73. 0tail92bill registered @ 2013-02-03 23:55:40, last login @ 2013-02-03 23:55:40
  74. 0dragonowner45 registered @ 2013-02-03 23:56:06, last login @ 2013-02-03 23:56:06
  75. 0buttongrease5 registered @ 2013-02-03 23:57:00, last login @ 2013-02-03 23:57:00
  76. 0Demspoittee registered @ 2013-02-03 23:57:10, last login @ 2013-02-03 23:57:10
  77. 0girdledash4 registered @ 2013-02-03 23:57:15, last login @ 2013-02-03 23:57:15
  78. 0betty15curler registered @ 2013-02-04 00:00:42, last login @ 2013-02-04 00:00:42
  79. 0brandy6front registered @ 2013-02-04 00:00:51, last login @ 2013-02-04 00:00:51
  80. 0hoodmaple3 registered @ 2013-02-04 00:01:05, last login @ 2013-02-04 00:01:05
  81. 0hyena80smoke registered @ 2013-02-04 00:01:23, last login @ 2013-02-04 00:01:23
  82. 0screen78paint registered @ 2013-02-04 00:01:32, last login @ 2013-02-04 00:01:32
  83. 0numbergate8 registered @ 2013-02-04 00:01:35, last login @ 2013-02-04 00:50:54
  84. 0stream5cast registered @ 2013-02-04 00:03:13, last login @ 2013-02-04 00:36:26
  85. 0dressflame6 registered @ 2013-02-04 00:03:24, last login @ 2013-02-04 00:03:24
  86. 0lungtiger7 registered @ 2013-02-04 00:04:16, last login @ 2013-02-04 00:04:16
  87. 0screw96clam registered @ 2013-02-04 00:04:40, last login @ 2013-02-04 00:04:40
  88. 0hemal registered @ 2013-02-04 00:06:43, last login @ 2013-02-04 00:06:43
  89. 0washerroot92 registered @ 2013-02-04 00:07:19, last login @ 2013-02-04 00:07:19
  90. 0lock1pea registered @ 2013-02-04 00:07:27, last login @ 2013-02-04 00:07:27
  91. 0woodshrine8 registered @ 2013-02-04 00:07:35, last login @ 2013-02-04 00:07:35
  92. 0mint99mail registered @ 2013-02-04 00:08:04, last login @ 2013-02-04 00:08:04
  93. 0touch7team registered @ 2013-02-04 00:08:27, last login @ 2013-02-04 00:08:27
  94. 0wandaamxkca9iz registered @ 2013-02-04 00:08:34, last login @ 2013-02-04 00:08:34
  95. 0waterrod9 registered @ 2013-02-04 00:11:27, last login @ 2013-02-04 00:49:20
  96. 0bit6kick registered @ 2013-02-04 00:12:36, last login @ 2013-02-04 00:12:36
  97. 0panty7test registered @ 2013-02-04 00:13:48, last login @ 2013-02-04 00:13:48
  98. 0yarngeorge82 registered @ 2013-02-04 00:15:41, last login @ 2013-02-04 00:15:41
  99. 0hoodlayer27 registered @ 2013-02-04 00:17:17, last login @ 2013-02-04 00:50:35
  100. 0dinnerbook8 registered @ 2013-02-04 00:18:36, last login @ 2013-02-04 00:18:36
  101. 0weapon1punch registered @ 2013-02-04 00:19:32, last login @ 2013-02-04 00:19:32

More...

[5790] [5789] [5788] [5787] [5786] [5785] [5784] [5783] [5782] [5781] [5780] [5779] [5778] [5777] [5776] [5775] [5774] [5773] [5772] [5771] ...[1]
Back to Top